createdAt,value
2019-01-11T00:01:52.757Z,10.03
2019-01-11T00:04:22.107Z,12.07
2019-01-11T00:06:51.571Z,11.53
2019-01-11T00:09:20.922Z,10.80
2019-01-11T00:11:50.248Z,7.13
2019-01-11T00:14:19.551Z,8.30
2019-01-11T00:16:49.025Z,7.27
2019-01-11T00:19:18.324Z,7.97
2019-01-11T00:21:47.682Z,7.40
2019-01-11T00:24:17.012Z,8.87
2019-01-11T00:26:46.271Z,7.77
2019-01-11T00:29:15.581Z,9.03
2019-01-11T00:31:44.879Z,9.83
2019-01-11T00:34:14.229Z,8.03
2019-01-11T00:36:43.595Z,8.87
2019-01-11T00:39:12.927Z,9.03
2019-01-11T00:41:42.206Z,9.77
2019-01-11T00:44:11.530Z,11.13
2019-01-11T00:46:40.904Z,9.27
2019-01-11T00:49:13.512Z,12.70
2019-01-11T00:51:41.303Z,7.73
2019-01-11T00:54:10.628Z,10.13
2019-01-11T00:56:39.902Z,12.20
2019-01-11T00:59:09.196Z,8.83
2019-01-11T01:01:38.600Z,9.83
2019-01-11T01:04:08.044Z,12.70
2019-01-11T01:06:37.583Z,10.80
2019-01-11T01:09:09.164Z,12.23
2019-01-11T01:11:38.696Z,10.70
2019-01-11T01:14:08.077Z,10.97
2019-01-11T01:16:37.395Z,14.33
2019-01-11T01:19:06.672Z,10.97
2019-01-11T01:21:35.988Z,11.77
2019-01-11T01:24:05.276Z,12.17
2019-01-11T01:26:34.564Z,9.70
2019-01-11T01:29:03.846Z,13.93
2019-01-11T01:31:33.205Z,11.73
2019-01-11T01:34:02.491Z,10.40
2019-01-11T01:36:31.827Z,12.20
2019-01-11T01:39:01.089Z,12.73
2019-01-11T01:41:30.439Z,13.50
2019-01-11T01:43:59.767Z,18.53
2019-01-11T01:46:29.093Z,15.33
2019-01-11T01:48:58.408Z,20.47
2019-01-11T01:51:27.755Z,16.93
2019-01-11T01:53:57.076Z,16.23
2019-01-11T01:56:26.372Z,18.07
2019-01-11T01:58:55.661Z,19.93
2019-01-11T02:01:24.947Z,18.00
2019-01-11T02:03:54.483Z,19.23
2019-01-11T02:06:23.772Z,22.03
2019-01-11T02:08:53.098Z,21.50
2019-01-11T02:11:22.375Z,16.77
2019-01-11T02:13:51.699Z,24.67
2019-01-11T02:16:20.990Z,21.10
2019-01-11T02:18:52.095Z,19.03
2019-01-11T02:21:26.085Z,25.73
2019-01-11T02:23:59.033Z,20.67
2019-01-11T02:26:32.115Z,21.47
2019-01-11T02:29:22.951Z,20.87
2019-01-11T02:31:57.954Z,15.40
2019-01-11T02:34:30.155Z,19.70
2019-01-11T02:37:32.843Z,19.43
2019-01-11T02:40:03.252Z,22.87
2019-01-11T02:42:52.036Z,23.60
2019-01-11T02:45:31.715Z,18.93
2019-01-11T02:48:03.115Z,27.53
2019-01-11T02:50:38.457Z,20.73
2019-01-11T02:53:26.377Z,25.07
2019-01-11T02:56:05.885Z,24.90
2019-01-11T02:58:47.620Z,23.60
2019-01-11T03:01:31.930Z,20.73
2019-01-11T03:04:24.399Z,21.33
2019-01-11T03:06:53.713Z,22.83
2019-01-11T03:09:27.758Z,20.27
2019-01-11T03:12:11.774Z,21.20
2019-01-11T03:14:48.479Z,20.97
2019-01-11T03:17:27.820Z,24.77
2019-01-11T03:20:09.379Z,23.80
2019-01-11T03:22:43.301Z,27.77
2019-01-11T03:25:18.906Z,26.83
2019-01-11T03:27:57.589Z,26.83
2019-01-11T03:31:00.916Z,26.27
2019-01-11T03:33:49.482Z,30.13
2019-01-11T03:36:31.337Z,26.17
2019-01-11T03:39:19.867Z,31.00
2019-01-11T03:42:22.355Z,28.40
2019-01-11T03:44:58.383Z,24.40
2019-01-11T03:47:58.283Z,25.23
2019-01-11T03:50:33.300Z,23.07
2019-01-11T03:53:28.582Z,21.17
2019-01-11T03:56:07.246Z,25.53
2019-01-11T03:58:42.239Z,29.00
2019-01-11T04:01:18.196Z,27.00
2019-01-11T04:03:55.253Z,28.53
2019-01-11T04:06:36.011Z,26.17
2019-01-11T04:09:23.558Z,27.17
2019-01-11T04:12:09.984Z,26.23
2019-01-11T04:14:53.321Z,28.10
2019-01-11T04:17:45.248Z,26.90
2019-01-11T04:20:31.687Z,26.03
2019-01-11T04:23:06.750Z,27.50
2019-01-11T04:25:54.293Z,27.63
2019-01-11T04:28:27.070Z,29.17
2019-01-11T04:31:20.465Z,28.63
2019-01-11T04:34:02.384Z,24.90
2019-01-11T04:36:38.109Z,35.00
2019-01-11T04:39:24.446Z,28.13
2019-01-11T04:42:23.036Z,29.73
2019-01-11T04:45:10.844Z,29.00
2019-01-11T04:47:46.245Z,31.37
2019-01-11T04:50:19.462Z,30.07
2019-01-11T04:53:11.243Z,30.60
2019-01-11T04:55:53.864Z,32.10
2019-01-11T04:58:50.610Z,26.50
2019-01-11T05:01:24.356Z,27.43
2019-01-11T05:04:16.497Z,28.87
2019-01-11T05:07:35.639Z,28.60
2019-01-11T05:10:46.835Z,26.67
2019-01-11T05:14:38.996Z,30.20
2019-01-11T05:17:59.735Z,28.70
2019-01-11T05:21:53.633Z,24.43
2019-01-11T05:35:09.747Z,29.70
2019-01-11T05:37:51.841Z,25.27
2019-01-11T05:40:25.569Z,29.17
2019-01-11T05:43:08.696Z,28.83
2019-01-11T05:45:45.344Z,25.03
2019-01-11T05:48:36.197Z,30.20
2019-01-11T05:51:20.565Z,32.83
2019-01-11T05:54:11.178Z,31.57
2019-01-11T05:56:51.823Z,29.97
2019-01-11T06:00:28.718Z,31.37
2019-01-11T06:03:13.502Z,28.30
2019-01-11T06:06:17.068Z,35.47
2019-01-11T06:09:02.088Z,31.50
2019-01-11T06:11:47.697Z,31.30
2019-01-11T06:14:47.740Z,31.23
2019-01-11T06:17:47.051Z,28.93
2019-01-11T06:20:30.319Z,29.60
2019-01-11T06:23:50.185Z,31.60
2019-01-11T06:37:48.151Z,29.23
2019-01-11T06:40:39.057Z,35.40
2019-01-11T06:43:11.909Z,33.77
2019-01-11T06:45:43.999Z,32.77
2019-01-11T06:48:34.396Z,35.03
2019-01-11T06:51:32.609Z,33.00
2019-01-11T06:54:08.605Z,36.80
2019-01-11T06:56:51.911Z,29.00
2019-01-11T06:59:37.447Z,41.00
2019-01-11T07:03:16.595Z,31.33
2019-01-11T07:06:16.610Z,33.60
2019-01-11T07:11:54.870Z,33.00
2019-01-11T07:14:24.212Z,30.70
2019-01-11T07:16:53.576Z,29.63
2019-01-11T07:19:22.992Z,30.50
2019-01-11T07:21:52.312Z,34.37
2019-01-11T07:24:21.813Z,33.33
2019-01-11T07:26:51.139Z,32.33
2019-01-11T07:29:20.527Z,31.07
2019-01-11T07:31:49.884Z,31.27
2019-01-11T07:34:19.311Z,33.37
2019-01-11T07:36:51.155Z,35.70
2019-01-11T07:39:26.969Z,35.77
2019-01-11T07:41:56.274Z,36.03
2019-01-11T07:44:26.617Z,35.67
2019-01-11T07:46:56.324Z,38.90
2019-01-11T07:49:25.646Z,38.10
2019-01-11T07:51:55.147Z,38.67
2019-01-11T07:54:24.559Z,37.13
2019-01-11T07:56:53.957Z,36.37
2019-01-11T07:59:23.656Z,39.57
2019-01-11T08:01:52.991Z,36.60
2019-01-11T08:04:22.577Z,40.57
2019-01-11T08:06:54.970Z,35.17
2019-01-11T08:09:24.510Z,41.17
2019-01-11T08:11:54.477Z,38.70
2019-01-11T08:14:23.855Z,39.50
2019-01-11T08:16:53.147Z,43.50
2019-01-11T08:19:22.579Z,36.70
2019-01-11T08:21:52.103Z,40.83
2019-01-11T08:24:21.561Z,41.83
2019-01-11T08:26:51.189Z,34.07
2019-01-11T08:29:20.782Z,37.23
2019-01-11T08:31:50.381Z,37.97
2019-01-11T08:34:20.015Z,37.50
2019-01-11T08:36:50.107Z,37.40
2019-01-11T08:39:19.980Z,32.60
2019-01-11T08:41:49.526Z,37.43
2019-01-11T08:44:19.301Z,35.43
2019-01-11T08:46:48.745Z,36.67
2019-01-11T08:49:18.491Z,38.87
2019-01-11T08:51:48.057Z,33.17
2019-01-11T08:54:17.654Z,36.10
2019-01-11T08:56:47.160Z,37.70
2019-01-11T08:59:16.524Z,40.27
2019-01-11T09:01:48.633Z,35.77
2019-01-11T09:04:18.074Z,35.43
2019-01-11T09:06:51.372Z,36.20
2019-01-11T09:09:21.277Z,36.83
2019-01-11T09:11:51.299Z,36.97
2019-01-11T09:14:40.050Z,40.53
2019-01-11T09:17:09.866Z,40.13
2019-01-11T09:19:39.654Z,45.03
2019-01-11T09:22:09.454Z,43.50
2019-01-11T09:24:39.332Z,42.77
2019-01-11T09:27:09.351Z,40.33
2019-01-11T09:29:39.592Z,39.33
2019-01-11T09:32:09.954Z,41.97
2019-01-11T09:34:40.152Z,40.93
2019-01-11T09:37:10.438Z,40.80
2019-01-11T09:39:40.586Z,39.77
2019-01-11T09:42:10.745Z,40.27
2019-01-11T09:44:42.779Z,45.33
2019-01-11T09:47:14.165Z,41.90
2019-01-11T09:49:44.107Z,43.73
2019-01-11T09:52:13.974Z,36.47
2019-01-11T09:54:44.256Z,38.40
2019-01-11T09:57:14.143Z,39.00
2019-01-11T09:59:44.452Z,41.70
2019-01-11T10:02:36.531Z,40.17
2019-01-11T10:05:08.860Z,41.40
2019-01-11T10:07:38.987Z,39.90
2019-01-11T10:10:12.217Z,34.53
2019-01-11T10:12:42.310Z,44.40
2019-01-11T10:15:14.400Z,37.63
2019-01-11T10:17:44.327Z,36.40
2019-01-11T10:20:14.537Z,38.83
2019-01-11T10:22:44.318Z,35.50
2019-01-11T10:25:14.351Z,35.93
2019-01-11T10:27:43.936Z,38.00
2019-01-11T10:30:21.060Z,39.50
2019-01-11T10:32:51.122Z,34.20
2019-01-11T10:35:20.892Z,37.20
2019-01-11T10:37:50.506Z,33.43
2019-01-11T10:40:20.303Z,31.60
2019-01-11T10:42:50.748Z,35.87
2019-01-11T10:45:22.569Z,34.47
2019-01-11T10:47:55.221Z,31.50
2019-01-11T10:50:24.982Z,35.97
2019-01-11T10:52:54.930Z,35.10
2019-01-11T10:55:25.186Z,34.43
2019-01-11T10:57:55.102Z,41.17
2019-01-11T11:00:27.031Z,32.17
2019-01-11T11:02:57.912Z,33.10
2019-01-11T11:05:27.918Z,32.57
2019-01-11T11:07:57.797Z,35.10
2019-01-11T11:10:27.831Z,35.77
2019-01-11T11:12:57.634Z,34.43
2019-01-11T11:15:27.360Z,35.27
2019-01-11T11:17:57.391Z,37.13
2019-01-11T11:20:27.130Z,40.37
2019-01-11T11:22:57.251Z,42.20
2019-01-11T11:25:26.895Z,38.07
2019-01-11T11:27:56.360Z,39.03
2019-01-11T11:30:26.098Z,40.43
2019-01-11T11:32:59.775Z,44.87
2019-01-11T11:35:30.260Z,43.70
2019-01-11T11:37:59.788Z,48.33
2019-01-11T11:40:36.324Z,47.70
2019-01-11T11:43:05.858Z,49.23
2019-01-11T11:45:35.400Z,47.20
2019-01-11T11:48:04.750Z,45.87
2019-01-11T11:50:34.246Z,53.90
2019-01-11T11:53:03.730Z,56.20
2019-01-11T11:55:33.088Z,49.03
2019-01-11T11:58:02.428Z,56.63
2019-01-11T12:00:31.741Z,51.63
2019-01-11T12:03:01.053Z,49.97
2019-01-11T12:05:30.368Z,55.80
2019-01-11T12:07:59.702Z,53.23
2019-01-11T12:10:29.040Z,54.00
2019-01-11T12:12:58.395Z,53.67
2019-01-11T12:15:27.800Z,53.27
2019-01-11T12:17:57.131Z,61.77
2019-01-11T12:20:31.227Z,60.93
2019-01-11T12:23:01.105Z,53.47
2019-01-11T12:25:30.427Z,57.53
2019-01-11T12:27:59.800Z,68.63
2019-01-11T12:30:29.181Z,60.70
2019-01-11T12:32:58.594Z,60.17
2019-01-11T12:35:30.289Z,55.47
2019-01-11T12:37:59.879Z,62.10
2019-01-11T12:40:29.275Z,60.43
2019-01-11T12:42:58.667Z,61.70
2019-01-11T12:45:27.987Z,56.30
2019-01-11T12:48:00.372Z,47.87
2019-01-11T12:50:29.735Z,45.37
2019-01-11T12:52:59.078Z,48.73
2019-01-11T12:55:28.432Z,43.80
2019-01-11T12:57:57.756Z,41.03
2019-01-11T13:00:28.295Z,42.37
2019-01-11T13:02:58.014Z,36.67
2019-01-11T13:05:27.450Z,46.47
2019-01-11T13:07:59.620Z,50.37
2019-01-11T13:10:32.008Z,50.97
2019-01-11T13:13:06.494Z,56.80
2019-01-11T13:15:37.881Z,47.33
2019-01-11T13:18:07.586Z,52.10
2019-01-11T13:20:39.261Z,48.13
2019-01-11T13:23:08.617Z,47.67
2019-01-11T13:25:49.309Z,51.73
2019-01-11T13:28:24.656Z,59.07
2019-01-11T13:31:02.150Z,60.43
2019-01-11T13:33:31.921Z,58.37
2019-01-11T13:36:17.514Z,58.30
2019-01-11T13:38:46.935Z,53.40
2019-01-11T13:41:16.311Z,61.07
2019-01-11T13:43:45.665Z,58.83
2019-01-11T13:46:15.092Z,54.20
2019-01-11T13:48:44.440Z,50.03
2019-01-11T13:51:23.691Z,43.47
2019-01-11T13:54:02.264Z,49.00
2019-01-11T13:56:30.868Z,42.87
2019-01-11T13:59:04.184Z,50.43
2019-01-11T14:01:41.641Z,42.67
2019-01-11T14:04:12.544Z,51.00
2019-01-11T14:06:47.501Z,47.17
2019-01-11T14:09:36.900Z,51.37
2019-01-11T14:12:23.939Z,49.57
2019-01-11T14:14:57.184Z,45.07
2019-01-11T14:17:29.219Z,44.10
2019-01-11T14:20:02.785Z,47.50
2019-01-11T14:22:38.968Z,44.97
2019-01-11T14:25:22.675Z,44.30
2019-01-11T14:28:15.196Z,41.80
2019-01-11T14:30:52.833Z,40.07
2019-01-11T14:33:22.181Z,46.30
2019-01-11T14:35:51.516Z,40.20
2019-01-11T14:38:20.903Z,45.37
2019-01-11T14:40:50.250Z,48.27
2019-01-11T14:43:19.639Z,41.00
2019-01-11T14:45:48.973Z,47.23
2019-01-11T14:48:18.339Z,43.60
2019-01-11T14:50:47.692Z,46.93
2019-01-11T14:53:17.037Z,44.77
2019-01-11T14:55:46.359Z,41.63
2019-01-11T14:58:15.796Z,41.93
2019-01-11T15:00:47.626Z,46.87
2019-01-11T15:03:22.993Z,36.37
2019-01-11T15:05:52.348Z,35.97
2019-01-11T15:08:21.722Z,38.17
2019-01-11T15:10:51.064Z,37.80
2019-01-11T15:13:20.417Z,36.23
2019-01-11T15:15:50.054Z,39.27
2019-01-11T15:18:19.380Z,29.57
2019-01-11T15:20:48.831Z,33.30
2019-01-11T15:23:18.185Z,28.00
2019-01-11T15:25:47.543Z,35.67
2019-01-11T15:28:16.872Z,33.77
2019-01-11T15:30:48.794Z,30.57
2019-01-11T15:33:24.275Z,27.97
2019-01-11T15:35:58.563Z,28.97
2019-01-11T15:38:28.016Z,22.20
2019-01-11T15:41:00.349Z,25.30
2019-01-11T15:43:34.129Z,22.40
2019-01-11T15:46:14.891Z,22.37
2019-01-11T15:49:02.156Z,25.77
2019-01-11T15:51:32.293Z,19.60
2019-01-11T15:54:05.443Z,23.37
2019-01-11T15:56:49.951Z,21.67
2019-01-11T15:59:20.427Z,25.30
2019-01-11T16:01:54.681Z,24.27
2019-01-11T16:04:24.048Z,21.23
2019-01-11T16:07:02.282Z,21.93
2019-01-11T16:10:21.383Z,19.70
2019-01-11T16:12:57.726Z,18.27
2019-01-11T16:16:00.061Z,19.60
2019-01-11T16:18:34.132Z,13.63
2019-01-11T16:21:12.498Z,16.20
2019-01-11T16:23:51.871Z,20.23
2019-01-11T16:26:31.908Z,20.47
2019-01-11T16:29:17.991Z,17.03
2019-01-11T16:31:59.790Z,19.33
2019-01-11T16:34:43.095Z,19.97
2019-01-11T16:37:19.897Z,23.97
2019-01-11T16:39:51.503Z,19.20
2019-01-11T16:42:26.320Z,22.00
2019-01-11T16:44:56.569Z,17.80
2019-01-11T16:47:38.874Z,22.30
2019-01-11T16:50:25.071Z,28.60
2019-01-11T16:52:59.845Z,19.57
2019-01-11T16:55:51.880Z,21.33
2019-01-11T16:58:42.899Z,21.77
2019-01-11T17:01:15.237Z,24.60
2019-01-11T17:03:51.931Z,21.63
2019-01-11T17:06:41.173Z,23.27
2019-01-11T17:09:14.091Z,20.70
2019-01-11T17:12:05.216Z,22.80
2019-01-11T17:14:41.285Z,20.37
2019-01-11T17:17:15.909Z,19.23
2019-01-11T17:19:53.443Z,17.37
2019-01-11T17:22:29.372Z,24.63
2019-01-11T17:25:42.830Z,18.33
2019-01-11T17:28:12.196Z,15.57
2019-01-11T17:30:41.566Z,17.67
2019-01-11T17:33:18.850Z,18.67
2019-01-11T17:35:56.632Z,21.87
2019-01-11T17:38:36.662Z,19.87
2019-01-11T17:41:18.180Z,19.77
2019-01-11T17:43:47.506Z,17.37
2019-01-11T17:46:16.923Z,18.40
2019-01-11T17:48:46.312Z,21.07
2019-01-11T17:51:15.772Z,17.93
2019-01-11T17:53:45.214Z,17.03
2019-01-11T17:56:14.584Z,20.37
2019-01-11T17:58:44.078Z,25.00
2019-01-11T18:01:13.681Z,22.00
2019-01-11T18:03:43.114Z,19.73
2019-01-11T18:06:12.500Z,20.37
2019-01-11T18:08:41.902Z,19.23
2019-01-11T18:11:11.616Z,23.33
2019-01-11T18:13:41.059Z,17.50
2019-01-11T18:16:11.520Z,19.47
2019-01-11T18:18:40.927Z,21.87
2019-01-11T18:21:10.421Z,23.03
2019-01-11T18:23:39.966Z,22.73
2019-01-11T18:26:09.361Z,27.83
2019-01-11T18:28:38.735Z,19.60
2019-01-11T18:31:08.171Z,20.83
2019-01-11T18:33:37.588Z,24.90
2019-01-11T18:36:07.203Z,22.40
2019-01-11T18:38:36.526Z,22.13
2019-01-11T18:41:05.870Z,22.97
2019-01-11T18:43:35.260Z,24.40
2019-01-11T18:46:04.733Z,22.10
2019-01-11T18:48:34.115Z,23.43
2019-01-11T18:51:03.460Z,21.93
2019-01-11T18:53:32.838Z,22.97
2019-01-11T18:56:05.505Z,21.60
2019-01-11T18:58:33.374Z,22.10
2019-01-11T19:01:02.831Z,21.17
2019-01-11T19:03:32.249Z,20.97
2019-01-11T19:06:01.682Z,25.27
2019-01-11T19:08:31.123Z,30.33
2019-01-11T19:11:00.615Z,29.57
2019-01-11T19:13:30.625Z,26.10
2019-01-11T19:15:59.949Z,30.03
2019-01-11T19:18:29.327Z,27.67
2019-01-11T19:20:59.247Z,23.60
2019-01-11T19:23:28.685Z,33.77
2019-01-11T19:25:58.079Z,24.70
2019-01-11T19:28:27.558Z,25.63
2019-01-11T19:30:56.950Z,29.33
2019-01-11T19:33:26.302Z,24.83
2019-01-11T19:35:55.666Z,27.50
2019-01-11T19:38:25.099Z,24.50
2019-01-11T19:40:54.423Z,29.40
2019-01-11T19:43:23.821Z,27.43
2019-01-11T19:45:53.402Z,28.50
2019-01-11T19:48:22.863Z,24.67
2019-01-11T19:50:52.300Z,22.70
2019-01-11T19:53:27.381Z,21.47
2019-01-11T19:55:58.771Z,23.23
2019-01-11T19:58:24.068Z,24.67
2019-01-11T20:00:53.573Z,23.20
2019-01-11T20:03:26.033Z,23.53
2019-01-11T20:05:55.478Z,25.03
2019-01-11T20:08:24.986Z,28.93
2019-01-11T20:10:54.464Z,30.77
2019-01-11T20:13:23.911Z,31.90
2019-01-11T20:15:53.328Z,33.73
2019-01-11T20:18:22.991Z,28.57
2019-01-11T20:20:52.454Z,30.57
2019-01-11T20:23:22.023Z,32.10
2019-01-11T20:25:51.472Z,32.07
2019-01-11T20:28:20.834Z,32.87
2019-01-11T20:30:50.207Z,29.30
2019-01-11T20:33:19.564Z,26.60
2019-01-11T20:35:48.948Z,27.50
2019-01-11T20:38:18.320Z,30.57
2019-01-11T20:40:47.728Z,31.37
2019-01-11T20:43:17.085Z,27.67
2019-01-11T20:45:46.421Z,26.70
2019-01-11T20:48:15.791Z,24.87
2019-01-11T20:50:45.113Z,28.67
2019-01-11T20:53:14.533Z,23.97
2019-01-11T20:55:43.916Z,28.70
2019-01-11T20:58:13.264Z,26.40
2019-01-11T21:00:42.618Z,24.60
2019-01-11T21:03:12.165Z,30.40
2019-01-11T21:05:41.893Z,26.47
2019-01-11T21:08:11.273Z,25.03
2019-01-11T21:10:40.753Z,28.77
2019-01-11T21:13:10.187Z,20.77
2019-01-11T21:15:39.597Z,25.73
2019-01-11T21:18:08.967Z,25.80
2019-01-11T21:20:38.302Z,27.03
2019-01-11T21:23:07.680Z,24.07
2019-01-11T21:25:37.163Z,29.90
2019-01-11T21:28:06.622Z,26.50
2019-01-11T21:30:36.062Z,23.73
2019-01-11T21:33:05.781Z,26.00
2019-01-11T21:35:35.218Z,24.33
2019-01-11T21:38:04.612Z,22.80
2019-01-11T21:40:33.961Z,31.20
2019-01-11T21:43:03.418Z,27.13
2019-01-11T21:45:32.772Z,23.37
2019-01-11T21:48:02.278Z,27.53
2019-01-11T21:50:31.644Z,25.63
2019-01-11T21:53:00.993Z,21.80
2019-01-11T21:55:30.335Z,24.10
2019-01-11T21:57:59.677Z,25.93
2019-01-11T22:00:32.155Z,22.70
2019-01-11T22:03:01.615Z,23.90
2019-01-11T22:05:30.976Z,22.17
2019-01-11T22:08:00.307Z,21.37
2019-01-11T22:10:32.227Z,23.63
2019-01-11T22:13:01.531Z,20.77
2019-01-11T22:15:30.903Z,24.90
2019-01-11T22:18:00.205Z,21.70
2019-01-11T22:20:29.615Z,21.30
2019-01-11T22:22:58.973Z,18.03
2019-01-11T22:25:28.404Z,24.17
2019-01-11T22:28:00.719Z,24.67
2019-01-11T22:30:30.664Z,19.07
2019-01-11T22:33:00.001Z,22.43
2019-01-11T22:35:29.575Z,23.57
2019-01-11T22:37:58.980Z,25.87
2019-01-11T22:40:28.350Z,25.57
2019-01-11T22:43:01.026Z,22.07
2019-01-11T22:45:30.374Z,22.27
2019-01-11T22:47:59.808Z,27.97
2019-01-11T22:50:36.648Z,21.90
2019-01-11T22:53:05.988Z,28.53
2019-01-11T22:55:35.307Z,22.10
2019-01-11T22:58:04.813Z,24.23
2019-01-11T23:00:39.827Z,24.67
2019-01-11T23:03:12.781Z,22.67
2019-01-11T23:05:42.334Z,26.47
2019-01-11T23:08:15.483Z,24.93
2019-01-11T23:11:15.763Z,28.17
2019-01-11T23:13:45.101Z,28.77
2019-01-11T23:16:38.968Z,27.23
2019-01-11T23:19:08.484Z,28.50
2019-01-11T23:21:37.858Z,23.43
2019-01-11T23:24:07.238Z,30.43
2019-01-11T23:26:36.636Z,29.10
2019-01-11T23:29:05.975Z,27.17
2019-01-11T23:31:35.298Z,33.63
2019-01-11T23:34:04.710Z,29.00
2019-01-11T23:36:34.036Z,25.07
2019-01-11T23:39:03.478Z,24.60
2019-01-11T23:41:32.774Z,28.07
2019-01-11T23:44:02.176Z,29.67
2019-01-11T23:46:31.492Z,25.40
2019-01-11T23:49:00.879Z,27.03
2019-01-11T23:51:30.193Z,25.07
2019-01-11T23:53:59.615Z,24.17
2019-01-11T23:56:29.038Z,24.60
2019-01-11T23:58:58.417Z,23.77
